sensor_id;sensor_type;location;lat;lon;timestamp;P1;durP1;ratioP1;P2;durP2;ratioP2
45893;SDS011;31603;51.148;16.932;2022-12-07T00:00:03;21.55;;;11.88;;
45893;SDS011;31603;51.148;16.932;2022-12-07T00:02:38;20.00;;;11.38;;
45893;SDS011;31603;51.148;16.932;2022-12-07T00:05:08;19.30;;;11.05;;
45893;SDS011;31603;51.148;16.932;2022-12-07T00:07:36;17.50;;;10.60;;
45893;SDS011;31603;51.148;16.932;2022-12-07T00:10:17;16.33;;;9.50;;
45893;SDS011;31603;51.148;16.932;2022-12-07T00:15:32;15.33;;;9.30;;
45893;SDS011;31603;51.148;16.932;2022-12-07T00:18:13;16.30;;;9.90;;
45893;SDS011;31603;51.148;16.932;2022-12-07T00:20:40;15.60;;;8.45;;
45893;SDS011;31603;51.148;16.932;2022-12-07T00:23:06;14.30;;;8.45;;
45893;SDS011;31603;51.148;16.932;2022-12-07T00:25:32;13.15;;;7.85;;
45893;SDS011;31603;51.148;16.932;2022-12-07T00:31:01;14.32;;;8.07;;
45893;SDS011;31603;51.148;16.932;2022-12-07T00:33:30;11.55;;;6.93;;
45893;SDS011;31603;51.148;16.932;2022-12-07T00:35:59;13.48;;;7.28;;
45893;SDS011;31603;51.148;16.932;2022-12-07T00:38:41;12.80;;;8.05;;
45893;SDS011;31603;51.148;16.932;2022-12-07T00:41:11;10.38;;;6.40;;
45893;SDS011;31603;51.148;16.932;2022-12-07T00:46:15;9.65;;;5.45;;
45893;SDS011;31603;51.148;16.932;2022-12-07T00:49:24;9.00;;;5.60;;
45893;SDS011;31603;51.148;16.932;2022-12-07T00:51:36;9.07;;;5.78;;
45893;SDS011;31603;51.148;16.932;2022-12-07T00:54:04;8.43;;;5.25;;
45893;SDS011;31603;51.148;16.932;2022-12-07T00:56:36;9.27;;;5.38;;
45893;SDS011;31603;51.148;16.932;2022-12-07T00:59:10;9.40;;;5.55;;
45893;SDS011;31603;51.148;16.932;2022-12-07T01:01:39;9.52;;;5.03;;
45893;SDS011;31603;51.148;16.932;2022-12-07T01:04:20;8.90;;;5.85;;
45893;SDS011;31603;51.148;16.932;2022-12-07T01:06:58;9.18;;;5.15;;
45893;SDS011;31603;51.148;16.932;2022-12-07T01:09:25;8.30;;;5.22;;
45893;SDS011;31603;51.148;16.932;2022-12-07T01:11:57;8.52;;;4.90;;
45893;SDS011;31603;51.148;16.932;2022-12-07T01:14:29;8.07;;;4.77;;
45893;SDS011;31603;51.148;16.932;2022-12-07T01:17:00;8.77;;;4.95;;
45893;SDS011;31603;51.148;16.932;2022-12-07T01:19:40;8.13;;;5.20;;
45893;SDS011;31603;51.148;16.932;2022-12-07T01:22:11;8.90;;;4.90;;
45893;SDS011;31603;51.148;16.932;2022-12-07T01:24:39;10.45;;;4.30;;
45893;SDS011;31603;51.148;16.932;2022-12-07T01:27:06;8.15;;;5.22;;
45893;SDS011;31603;51.148;16.932;2022-12-07T01:29:36;7.80;;;4.60;;
45893;SDS011;31603;51.148;16.932;2022-12-07T01:32:15;8.15;;;4.80;;
45893;SDS011;31603;51.148;16.932;2022-12-07T01:34:48;6.95;;;4.55;;
45893;SDS011;31603;51.148;16.932;2022-12-07T01:37:17;7.38;;;4.53;;
45893;SDS011;31603;51.148;16.932;2022-12-07T01:39:43;5.90;;;4.30;;
45893;SDS011;31603;51.148;16.932;2022-12-07T01:42:23;6.80;;;3.90;;
45893;SDS011;31603;51.148;16.932;2022-12-07T01:48:00;8.13;;;4.20;;
45893;SDS011;31603;51.148;16.932;2022-12-07T01:50:28;7.40;;;4.53;;
45893;SDS011;31603;51.148;16.932;2022-12-07T01:52:58;6.63;;;4.43;;
45893;SDS011;31603;51.148;16.932;2022-12-07T01:55:42;6.60;;;4.70;;
45893;SDS011;31603;51.148;16.932;2022-12-07T01:58:34;6.47;;;4.30;;
45893;SDS011;31603;51.148;16.932;2022-12-07T02:01:04;6.60;;;4.22;;
45893;SDS011;31603;51.148;16.932;2022-12-07T02:03:48;6.72;;;4.68;;
45893;SDS011;31603;51.148;16.932;2022-12-07T02:06:23;5.78;;;3.95;;
45893;SDS011;31603;51.148;16.932;2022-12-07T02:08:51;7.35;;;4.60;;
45893;SDS011;31603;51.148;16.932;2022-12-07T02:11:40;6.93;;;4.60;;
45893;SDS011;31603;51.148;16.932;2022-12-07T02:14:22;7.30;;;4.43;;
45893;SDS011;31603;51.148;16.932;2022-12-07T02:16:56;5.68;;;4.07;;
45893;SDS011;31603;51.148;16.932;2022-12-07T02:25:57;6.85;;;4.93;;
45893;SDS011;31603;51.148;16.932;2022-12-07T02:32:00;7.15;;;4.60;;
45893;SDS011;31603;51.148;16.932;2022-12-07T02:34:40;5.80;;;3.60;;
45893;SDS011;31603;51.148;16.932;2022-12-07T02:37:25;6.28;;;4.45;;
45893;SDS011;31603;51.148;16.932;2022-12-07T02:40:01;5.93;;;3.85;;
45893;SDS011;31603;51.148;16.932;2022-12-07T02:42:51;7.03;;;4.03;;
45893;SDS011;31603;51.148;16.932;2022-12-07T02:45:30;6.20;;;4.18;;
45893;SDS011;31603;51.148;16.932;2022-12-07T02:48:02;4.78;;;3.30;;
45893;SDS011;31603;51.148;16.932;2022-12-07T02:50:48;5.47;;;3.80;;
45893;SDS011;31603;51.148;16.932;2022-12-07T02:53:28;5.57;;;4.25;;
45893;SDS011;31603;51.148;16.932;2022-12-07T02:55:58;7.10;;;4.30;;
45893;SDS011;31603;51.148;16.932;2022-12-07T02:58:40;8.43;;;4.15;;
45893;SDS011;31603;51.148;16.932;2022-12-07T03:01:23;5.65;;;3.65;;
45893;SDS011;31603;51.148;16.932;2022-12-07T03:04:02;5.53;;;3.83;;
45893;SDS011;31603;51.148;16.932;2022-12-07T03:06:56;6.32;;;4.18;;
45893;SDS011;31603;51.148;16.932;2022-12-07T03:09:35;6.03;;;4.30;;
45893;SDS011;31603;51.148;16.932;2022-12-07T03:12:24;5.47;;;4.22;;
45893;SDS011;31603;51.148;16.932;2022-12-07T03:15:05;7.45;;;4.68;;
45893;SDS011;31603;51.148;16.932;2022-12-07T03:17:39;7.28;;;4.43;;
45893;SDS011;31603;51.148;16.932;2022-12-07T03:20:29;9.25;;;5.68;;
45893;SDS011;31603;51.148;16.932;2022-12-07T03:23:04;8.25;;;5.22;;
45893;SDS011;31603;51.148;16.932;2022-12-07T03:25:34;8.23;;;5.40;;
45893;SDS011;31603;51.148;16.932;2022-12-07T03:28:15;8.35;;;5.70;;
45893;SDS011;31603;51.148;16.932;2022-12-07T03:30:47;9.00;;;5.90;;
45893;SDS011;31603;51.148;16.932;2022-12-07T03:33:19;12.88;;;6.68;;
45893;SDS011;31603;51.148;16.932;2022-12-07T03:36:00;9.45;;;6.25;;
45893;SDS011;31603;51.148;16.932;2022-12-07T03:38:31;11.75;;;6.70;;
45893;SDS011;31603;51.148;16.932;2022-12-07T03:41:19;10.65;;;6.55;;
45893;SDS011;31603;51.148;16.932;2022-12-07T03:44:01;10.57;;;7.35;;
45893;SDS011;31603;51.148;16.932;2022-12-07T03:46:31;9.40;;;5.88;;
45893;SDS011;31603;51.148;16.932;2022-12-07T03:49:20;9.57;;;6.13;;
45893;SDS011;31603;51.148;16.932;2022-12-07T03:52:00;8.52;;;5.70;;
45893;SDS011;31603;51.148;16.932;2022-12-07T03:54:47;8.38;;;5.43;;
45893;SDS011;31603;51.148;16.932;2022-12-07T03:57:55;8.45;;;5.47;;
45893;SDS011;31603;51.148;16.932;2022-12-07T04:00:44;8.50;;;5.75;;
45893;SDS011;31603;51.148;16.932;2022-12-07T04:03:14;8.50;;;5.63;;
45893;SDS011;31603;51.148;16.932;2022-12-07T04:05:41;11.38;;;6.60;;
45893;SDS011;31603;51.148;16.932;2022-12-07T04:08:10;8.98;;;5.55;;
45893;SDS011;31603;51.148;16.932;2022-12-07T04:10:51;9.02;;;6.22;;
45893;SDS011;31603;51.148;16.932;2022-12-07T04:13:18;9.15;;;5.97;;
45893;SDS011;31603;51.148;16.932;2022-12-07T04:15:44;7.53;;;4.80;;
45893;SDS011;31603;51.148;16.932;2022-12-07T04:18:16;7.28;;;4.85;;
45893;SDS011;31603;51.148;16.932;2022-12-07T04:20:45;7.28;;;5.03;;
45893;SDS011;31603;51.148;16.932;2022-12-07T04:23:13;8.98;;;5.28;;
45893;SDS011;31603;51.148;16.932;2022-12-07T04:25:47;10.27;;;5.13;;
45893;SDS011;31603;51.148;16.932;2022-12-07T04:28:20;9.43;;;6.07;;
45893;SDS011;31603;51.148;16.932;2022-12-07T04:30:52;8.63;;;5.85;;
45893;SDS011;31603;51.148;16.932;2022-12-07T04:33:19;7.25;;;4.60;;
45893;SDS011;31603;51.148;16.932;2022-12-07T04:35:45;6.97;;;5.03;;
45893;SDS011;31603;51.148;16.932;2022-12-07T04:38:32;6.35;;;4.70;;
45893;SDS011;31603;51.148;16.932;2022-12-07T04:41:02;7.55;;;4.70;;
45893;SDS011;31603;51.148;16.932;2022-12-07T04:43:44;8.65;;;4.70;;
45893;SDS011;31603;51.148;16.932;2022-12-07T04:46:25;8.50;;;4.80;;
45893;SDS011;31603;51.148;16.932;2022-12-07T04:48:56;7.00;;;4.88;;
45893;SDS011;31603;51.148;16.932;2022-12-07T04:51:26;7.18;;;4.88;;
45893;SDS011;31603;51.148;16.932;2022-12-07T04:53:59;9.50;;;4.97;;
45893;SDS011;31603;51.148;16.932;2022-12-07T04:56:28;9.48;;;5.80;;
45893;SDS011;31603;51.148;16.932;2022-12-07T04:58:59;10.02;;;5.75;;
45893;SDS011;31603;51.148;16.932;2022-12-07T05:04:04;11.13;;;6.18;;
45893;SDS011;31603;51.148;16.932;2022-12-07T05:06:30;12.55;;;6.90;;
45893;SDS011;31603;51.148;16.932;2022-12-07T05:09:03;12.32;;;7.75;;
45893;SDS011;31603;51.148;16.932;2022-12-07T05:11:45;13.07;;;6.90;;
45893;SDS011;31603;51.148;16.932;2022-12-07T05:14:26;13.88;;;6.95;;
45893;SDS011;31603;51.148;16.932;2022-12-07T05:16:55;11.05;;;6.07;;
45893;SDS011;31603;51.148;16.932;2022-12-07T05:19:21;13.30;;;7.10;;
45893;SDS011;31603;51.148;16.932;2022-12-07T05:21:48;11.68;;;7.45;;
45893;SDS011;31603;51.148;16.932;2022-12-07T05:24:33;13.18;;;6.45;;
45893;SDS011;31603;51.148;16.932;2022-12-07T05:27:06;14.48;;;7.70;;
45893;SDS011;31603;51.148;16.932;2022-12-07T05:29:32;16.13;;;7.32;;
45893;SDS011;31603;51.148;16.932;2022-12-07T05:31:59;17.75;;;8.50;;
45893;SDS011;31603;51.148;16.932;2022-12-07T05:34:26;17.13;;;8.85;;
45893;SDS011;31603;51.148;16.932;2022-12-07T05:37:05;15.40;;;7.60;;
45893;SDS011;31603;51.148;16.932;2022-12-07T05:39:45;19.25;;;11.10;;
45893;SDS011;31603;51.148;16.932;2022-12-07T05:42:19;19.65;;;10.00;;
45893;SDS011;31603;51.148;16.932;2022-12-07T05:44:45;18.38;;;9.77;;
45893;SDS011;31603;51.148;16.932;2022-12-07T05:47:13;20.42;;;9.90;;
45893;SDS011;31603;51.148;16.932;2022-12-07T05:49:42;20.23;;;10.07;;
45893;SDS011;31603;51.148;16.932;2022-12-07T05:52:20;24.23;;;12.27;;
45893;SDS011;31603;51.148;16.932;2022-12-07T05:54:51;21.50;;;11.13;;
45893;SDS011;31603;51.148;16.932;2022-12-07T05:57:18;21.70;;;10.70;;
45893;SDS011;31603;51.148;16.932;2022-12-07T05:59:48;23.35;;;12.68;;
45893;SDS011;31603;51.148;16.932;2022-12-07T06:02:15;26.65;;;13.52;;
45893;SDS011;31603;51.148;16.932;2022-12-07T06:04:45;20.73;;;10.95;;
45893;SDS011;31603;51.148;16.932;2022-12-07T06:07:13;29.98;;;13.38;;
45893;SDS011;31603;51.148;16.932;2022-12-07T06:09:43;29.63;;;12.73;;
45893;SDS011;31603;51.148;16.932;2022-12-07T06:12:17;29.13;;;14.23;;
45893;SDS011;31603;51.148;16.932;2022-12-07T06:15:01;26.55;;;13.20;;
45893;SDS011;31603;51.148;16.932;2022-12-07T06:17:38;27.55;;;12.50;;
45893;SDS011;31603;51.148;16.932;2022-12-07T06:20:05;31.00;;;14.27;;
45893;SDS011;31603;51.148;16.932;2022-12-07T06:22:51;24.77;;;13.25;;
45893;SDS011;31603;51.148;16.932;2022-12-07T06:25:17;27.98;;;13.00;;
45893;SDS011;31603;51.148;16.932;2022-12-07T06:27:45;23.95;;;13.55;;
45893;SDS011;31603;51.148;16.932;2022-12-07T06:30:29;29.55;;;13.90;;
45893;SDS011;31603;51.148;16.932;2022-12-07T06:33:05;27.65;;;13.30;;
45893;SDS011;31603;51.148;16.932;2022-12-07T06:35:45;29.95;;;15.40;;
45893;SDS011;31603;51.148;16.932;2022-12-07T06:38:26;25.02;;;12.65;;
45893;SDS011;31603;51.148;16.932;2022-12-07T06:40:57;30.85;;;13.50;;
45893;SDS011;31603;51.148;16.932;2022-12-07T06:43:29;29.45;;;13.00;;
45893;SDS011;31603;51.148;16.932;2022-12-07T06:47:47;23.08;;;12.43;;
45893;SDS011;31603;51.148;16.932;2022-12-07T06:49:05;26.85;;;12.07;;
45893;SDS011;31603;51.148;16.932;2022-12-07T06:51:41;30.95;;;13.48;;
45893;SDS011;31603;51.148;16.932;2022-12-07T06:54:22;33.90;;;16.50;;
45893;SDS011;31603;51.148;16.932;2022-12-07T06:56:49;31.77;;;15.48;;
45893;SDS011;31603;51.148;16.932;2022-12-07T06:59:17;32.83;;;17.10;;
45893;SDS011;31603;51.148;16.932;2022-12-07T07:01:43;26.60;;;14.50;;
45893;SDS011;31603;51.148;16.932;2022-12-07T07:04:16;24.33;;;13.77;;
45893;SDS011;31603;51.148;16.932;2022-12-07T07:06:49;25.20;;;12.07;;
45893;SDS011;31603;51.148;16.932;2022-12-07T07:09:21;23.70;;;11.65;;
45893;SDS011;31603;51.148;16.932;2022-12-07T07:11:47;21.38;;;11.55;;
45893;SDS011;31603;51.148;16.932;2022-12-07T07:14:37;22.30;;;11.13;;
45893;SDS011;31603;51.148;16.932;2022-12-07T07:17:19;24.42;;;12.57;;
45893;SDS011;31603;51.148;16.932;2022-12-07T07:19:49;25.48;;;12.45;;
45893;SDS011;31603;51.148;16.932;2022-12-07T07:22:30;22.50;;;11.63;;
45893;SDS011;31603;51.148;16.932;2022-12-07T07:27:44;23.35;;;11.90;;
45893;SDS011;31603;51.148;16.932;2022-12-07T07:30:15;22.85;;;10.52;;
45893;SDS011;31603;51.148;16.932;2022-12-07T07:32:41;23.88;;;13.07;;
45893;SDS011;31603;51.148;16.932;2022-12-07T07:35:08;24.92;;;12.00;;
45893;SDS011;31603;51.148;16.932;2022-12-07T07:37:40;21.90;;;11.65;;
45893;SDS011;31603;51.148;16.932;2022-12-07T07:40:07;23.08;;;12.45;;
45893;SDS011;31603;51.148;16.932;2022-12-07T07:42:50;26.33;;;12.40;;
45893;SDS011;31603;51.148;16.932;2022-12-07T07:45:24;19.35;;;11.05;;
45893;SDS011;31603;51.148;16.932;2022-12-07T07:47:52;20.50;;;11.57;;
45893;SDS011;31603;51.148;16.932;2022-12-07T07:50:31;22.73;;;11.77;;
45893;SDS011;31603;51.148;16.932;2022-12-07T07:53:03;24.10;;;12.55;;
45893;SDS011;31603;51.148;16.932;2022-12-07T07:55:30;24.80;;;13.15;;
45893;SDS011;31603;51.148;16.932;2022-12-07T07:58:27;23.00;;;12.52;;
45893;SDS011;31603;51.148;16.932;2022-12-07T08:01:04;23.63;;;13.20;;
45893;SDS011;31603;51.148;16.932;2022-12-07T08:03:41;23.52;;;12.55;;
45893;SDS011;31603;51.148;16.932;2022-12-07T08:06:23;24.70;;;13.98;;
45893;SDS011;31603;51.148;16.932;2022-12-07T08:08:51;21.95;;;11.32;;
45893;SDS011;31603;51.148;16.932;2022-12-07T08:11:20;25.05;;;13.30;;
45893;SDS011;31603;51.148;16.932;2022-12-07T08:14:25;24.90;;;12.75;;
45893;SDS011;31603;51.148;16.932;2022-12-07T08:19:49;24.65;;;11.75;;
45893;SDS011;31603;51.148;16.932;2022-12-07T08:22:28;23.70;;;12.25;;
45893;SDS011;31603;51.148;16.932;2022-12-07T08:25:00;26.40;;;12.50;;
45893;SDS011;31603;51.148;16.932;2022-12-07T08:27:27;23.85;;;11.48;;
45893;SDS011;31603;51.148;16.932;2022-12-07T08:29:55;22.52;;;11.63;;
45893;SDS011;31603;51.148;16.932;2022-12-07T08:32:29;21.58;;;11.68;;
45893;SDS011;31603;51.148;16.932;2022-12-07T08:35:26;19.45;;;10.95;;
45893;SDS011;31603;51.148;16.932;2022-12-07T08:37:43;21.65;;;11.13;;
45893;SDS011;31603;51.148;16.932;2022-12-07T08:40:29;19.33;;;10.20;;
45893;SDS011;31603;51.148;16.932;2022-12-07T08:43:03;20.50;;;11.30;;
45893;SDS011;31603;51.148;16.932;2022-12-07T08:45:36;19.23;;;11.07;;
45893;SDS011;31603;51.148;16.932;2022-12-07T08:48:11;34.75;;;12.02;;
45893;SDS011;31603;51.148;16.932;2022-12-07T08:51:16;22.00;;;11.90;;
45893;SDS011;31603;51.148;16.932;2022-12-07T08:53:43;26.42;;;12.20;;
45893;SDS011;31603;51.148;16.932;2022-12-07T08:56:26;21.38;;;11.05;;
45893;SDS011;31603;51.148;16.932;2022-12-07T08:59:05;26.77;;;12.10;;
45893;SDS011;31603;51.148;16.932;2022-12-07T09:01:33;21.55;;;10.98;;
45893;SDS011;31603;51.148;16.932;2022-12-07T09:04:01;21.48;;;11.00;;
45893;SDS011;31603;51.148;16.932;2022-12-07T09:06:31;21.52;;;11.38;;
45893;SDS011;31603;51.148;16.932;2022-12-07T09:08:59;19.63;;;11.10;;
45893;SDS011;31603;51.148;16.932;2022-12-07T09:11:27;19.75;;;10.55;;
45893;SDS011;31603;51.148;16.932;2022-12-07T09:13:56;17.40;;;9.88;;
45893;SDS011;31603;51.148;16.932;2022-12-07T09:16:22;16.27;;;8.45;;
45893;SDS011;31603;51.148;16.932;2022-12-07T09:19:01;15.48;;;8.45;;
45893;SDS011;31603;51.148;16.932;2022-12-07T09:21:38;18.35;;;9.13;;
45893;SDS011;31603;51.148;16.932;2022-12-07T09:24:05;16.55;;;9.30;;
45893;SDS011;31603;51.148;16.932;2022-12-07T09:26:48;15.55;;;8.73;;
45893;SDS011;31603;51.148;16.932;2022-12-07T09:29:18;11.32;;;6.80;;
45893;SDS011;31603;51.148;16.932;2022-12-07T09:31:45;11.35;;;6.07;;
45893;SDS011;31603;51.148;16.932;2022-12-07T09:37:27;9.77;;;5.90;;
45893;SDS011;31603;51.148;16.932;2022-12-07T09:40:02;11.88;;;7.00;;
45893;SDS011;31603;51.148;16.932;2022-12-07T09:42:32;10.63;;;6.18;;
45893;SDS011;31603;51.148;16.932;2022-12-07T09:45:27;9.27;;;5.57;;
45893;SDS011;31603;51.148;16.932;2022-12-07T09:48:03;8.02;;;5.63;;
45893;SDS011;31603;51.148;16.932;2022-12-07T09:50:34;9.38;;;5.32;;
45893;SDS011;31603;51.148;16.932;2022-12-07T09:53:05;10.32;;;5.55;;
45893;SDS011;31603;51.148;16.932;2022-12-07T09:55:45;6.93;;;4.93;;
45893;SDS011;31603;51.148;16.932;2022-12-07T09:58:20;9.60;;;5.38;;
45893;SDS011;31603;51.148;16.932;2022-12-07T10:00:49;9.10;;;4.78;;
45893;SDS011;31603;51.148;16.932;2022-12-07T10:05:49;7.55;;;4.53;;
45893;SDS011;31603;51.148;16.932;2022-12-07T10:08:31;8.25;;;4.75;;
45893;SDS011;31603;51.148;16.932;2022-12-07T10:11:16;9.32;;;5.13;;
45893;SDS011;31603;51.148;16.932;2022-12-07T10:13:43;7.75;;;4.60;;
45893;SDS011;31603;51.148;16.932;2022-12-07T10:19:20;8.80;;;4.55;;
45893;SDS011;31603;51.148;16.932;2022-12-07T10:22:04;9.00;;;5.05;;
45893;SDS011;31603;51.148;16.932;2022-12-07T10:24:46;9.93;;;5.05;;
45893;SDS011;31603;51.148;16.932;2022-12-07T10:27:19;10.40;;;5.88;;
45893;SDS011;31603;51.148;16.932;2022-12-07T10:29:47;10.85;;;6.25;;
45893;SDS011;31603;51.148;16.932;2022-12-07T10:32:35;9.55;;;4.93;;
45893;SDS011;31603;51.148;16.932;2022-12-07T10:35:18;7.57;;;4.65;;
45893;SDS011;31603;51.148;16.932;2022-12-07T10:37:56;7.35;;;4.35;;
45893;SDS011;31603;51.148;16.932;2022-12-07T10:40:32;7.13;;;4.20;;
45893;SDS011;31603;51.148;16.932;2022-12-07T10:43:03;8.73;;;4.82;;
45893;SDS011;31603;51.148;16.932;2022-12-07T10:45:39;10.25;;;5.10;;
45893;SDS011;31603;51.148;16.932;2022-12-07T10:48:29;10.10;;;5.47;;
45893;SDS011;31603;51.148;16.932;2022-12-07T10:51:06;10.32;;;4.78;;
45893;SDS011;31603;51.148;16.932;2022-12-07T10:56:53;9.68;;;5.15;;
45893;SDS011;31603;51.148;16.932;2022-12-07T11:00:08;7.45;;;3.65;;
45893;SDS011;31603;51.148;16.932;2022-12-07T11:06:21;4.53;;;2.95;;
45893;SDS011;31603;51.148;16.932;2022-12-07T11:09:00;5.68;;;4.00;;
45893;SDS011;31603;51.148;16.932;2022-12-07T11:11:46;8.05;;;3.85;;
45893;SDS011;31603;51.148;16.932;2022-12-07T11:14:28;6.75;;;4.35;;
45893;SDS011;31603;51.148;16.932;2022-12-07T11:17:07;5.68;;;3.85;;
45893;SDS011;31603;51.148;16.932;2022-12-07T11:19:48;6.53;;;4.40;;
45893;SDS011;31603;51.148;16.932;2022-12-07T11:22:35;7.28;;;4.63;;
45893;SDS011;31603;51.148;16.932;2022-12-07T11:25:22;10.80;;;4.93;;
45893;SDS011;31603;51.148;16.932;2022-12-07T11:28:06;5.40;;;3.10;;
45893;SDS011;31603;51.148;16.932;2022-12-07T11:31:08;8.02;;;4.80;;
45893;SDS011;31603;51.148;16.932;2022-12-07T11:36:48;8.05;;;5.03;;
45893;SDS011;31603;51.148;16.932;2022-12-07T11:39:22;7.43;;;4.88;;
45893;SDS011;31603;51.148;16.932;2022-12-07T11:42:00;6.45;;;4.18;;
45893;SDS011;31603;51.148;16.932;2022-12-07T11:44:44;7.18;;;4.00;;
45893;SDS011;31603;51.148;16.932;2022-12-07T11:47:17;2.97;;;2.35;;
45893;SDS011;31603;51.148;16.932;2022-12-07T11:49:53;6.85;;;4.00;;
45893;SDS011;31603;51.148;16.932;2022-12-07T11:52:27;8.00;;;3.95;;
45893;SDS011;31603;51.148;16.932;2022-12-07T11:55:14;7.72;;;4.30;;
45893;SDS011;31603;51.148;16.932;2022-12-07T11:57:49;4.57;;;3.40;;
45893;SDS011;31603;51.148;16.932;2022-12-07T12:00:34;6.60;;;4.13;;
45893;SDS011;31603;51.148;16.932;2022-12-07T12:03:09;5.45;;;3.80;;
45893;SDS011;31603;51.148;16.932;2022-12-07T12:05:42;5.82;;;4.03;;
45893;SDS011;31603;51.148;16.932;2022-12-07T12:08:21;7.07;;;4.43;;
45893;SDS011;31603;51.148;16.932;2022-12-07T12:10:58;4.47;;;3.38;;
45893;SDS011;31603;51.148;16.932;2022-12-07T12:16:37;7.80;;;5.20;;
45893;SDS011;31603;51.148;16.932;2022-12-07T12:19:18;6.15;;;3.88;;
45893;SDS011;31603;51.148;16.932;2022-12-07T12:24:49;7.25;;;3.78;;
45893;SDS011;31603;51.148;16.932;2022-12-07T12:27:20;7.63;;;4.43;;
45893;SDS011;31603;51.148;16.932;2022-12-07T12:30:06;10.88;;;4.95;;
45893;SDS011;31603;51.148;16.932;2022-12-07T12:32:51;8.05;;;4.75;;
45893;SDS011;31603;51.148;16.932;2022-12-07T12:35:26;7.18;;;4.63;;
45893;SDS011;31603;51.148;16.932;2022-12-07T12:40:52;6.63;;;4.70;;
45893;SDS011;31603;51.148;16.932;2022-12-07T12:58:46;9.27;;;5.68;;
45893;SDS011;31603;51.148;16.932;2022-12-07T13:04:28;7.60;;;4.95;;
45893;SDS011;31603;51.148;16.932;2022-12-07T13:07:47;9.85;;;5.05;;
45893;SDS011;31603;51.148;16.932;2022-12-07T13:10:20;8.50;;;5.45;;
45893;SDS011;31603;51.148;16.932;2022-12-07T13:13:05;9.55;;;5.30;;
45893;SDS011;31603;51.148;16.932;2022-12-07T13:15:49;11.05;;;6.22;;
45893;SDS011;31603;51.148;16.932;2022-12-07T13:18:40;8.98;;;4.60;;
45893;SDS011;31603;51.148;16.932;2022-12-07T13:27:10;8.98;;;4.80;;
45893;SDS011;31603;51.148;16.932;2022-12-07T13:29:38;10.45;;;6.63;;
45893;SDS011;31603;51.148;16.932;2022-12-07T13:32:17;8.60;;;5.63;;
45893;SDS011;31603;51.148;16.932;2022-12-07T13:34:51;8.02;;;5.38;;
45893;SDS011;31603;51.148;16.932;2022-12-07T13:37:24;9.70;;;5.25;;
45893;SDS011;31603;51.148;16.932;2022-12-07T13:43:13;7.95;;;5.35;;
45893;SDS011;31603;51.148;16.932;2022-12-07T13:45:41;9.27;;;5.00;;
45893;SDS011;31603;51.148;16.932;2022-12-07T13:48:26;11.57;;;5.07;;
45893;SDS011;31603;51.148;16.932;2022-12-07T13:50:57;11.57;;;6.10;;
45893;SDS011;31603;51.148;16.932;2022-12-07T13:53:26;13.25;;;5.90;;
45893;SDS011;31603;51.148;16.932;2022-12-07T13:55:55;8.98;;;5.82;;
45893;SDS011;31603;51.148;16.932;2022-12-07T13:58:33;15.43;;;6.13;;
45893;SDS011;31603;51.148;16.932;2022-12-07T14:01:09;13.50;;;6.28;;
45893;SDS011;31603;51.148;16.932;2022-12-07T14:03:44;10.07;;;5.50;;
45893;SDS011;31603;51.148;16.932;2022-12-07T14:06:19;18.30;;;6.20;;
45893;SDS011;31603;51.148;16.932;2022-12-07T14:09:05;11.52;;;5.00;;
45893;SDS011;31603;51.148;16.932;2022-12-07T14:11:33;11.13;;;5.78;;
45893;SDS011;31603;51.148;16.932;2022-12-07T14:14:19;10.65;;;5.00;;
45893;SDS011;31603;51.148;16.932;2022-12-07T14:19:44;10.40;;;5.55;;
45893;SDS011;31603;51.148;16.932;2022-12-07T14:22:21;8.27;;;5.20;;
45893;SDS011;31603;51.148;16.932;2022-12-07T14:24:58;7.93;;;4.47;;
45893;SDS011;31603;51.148;16.932;2022-12-07T14:27:29;7.38;;;4.32;;
45893;SDS011;31603;51.148;16.932;2022-12-07T14:32:57;7.75;;;4.20;;
45893;SDS011;31603;51.148;16.932;2022-12-07T14:35:46;8.25;;;5.53;;
45893;SDS011;31603;51.148;16.932;2022-12-07T14:38:12;10.52;;;4.85;;
45893;SDS011;31603;51.148;16.932;2022-12-07T14:40:43;10.82;;;5.32;;
45893;SDS011;31603;51.148;16.932;2022-12-07T14:43:16;8.15;;;4.70;;
45893;SDS011;31603;51.148;16.932;2022-12-07T14:45:51;7.30;;;5.00;;
45893;SDS011;31603;51.148;16.932;2022-12-07T14:48:29;9.23;;;4.82;;
45893;SDS011;31603;51.148;16.932;2022-12-07T14:51:00;15.00;;;5.47;;
45893;SDS011;31603;51.148;16.932;2022-12-07T14:53:27;7.65;;;4.57;;
45893;SDS011;31603;51.148;16.932;2022-12-07T14:56:11;10.75;;;5.55;;
45893;SDS011;31603;51.148;16.932;2022-12-07T14:58:55;8.45;;;4.90;;
45893;SDS011;31603;51.148;16.932;2022-12-07T15:01:27;9.57;;;5.15;;
45893;SDS011;31603;51.148;16.932;2022-12-07T15:03:56;9.88;;;5.63;;
45893;SDS011;31603;51.148;16.932;2022-12-07T15:06:48;9.27;;;5.63;;
45893;SDS011;31603;51.148;16.932;2022-12-07T15:09:27;12.90;;;5.68;;
45893;SDS011;31603;51.148;16.932;2022-12-07T15:11:54;9.93;;;5.30;;
45893;SDS011;31603;51.148;16.932;2022-12-07T15:14:29;10.05;;;5.65;;
45893;SDS011;31603;51.148;16.932;2022-12-07T15:16:55;10.75;;;5.35;;
45893;SDS011;31603;51.148;16.932;2022-12-07T15:19:24;12.93;;;6.15;;
45893;SDS011;31603;51.148;16.932;2022-12-07T15:21:54;11.10;;;6.00;;
45893;SDS011;31603;51.148;16.932;2022-12-07T15:24:36;11.18;;;5.75;;
45893;SDS011;31603;51.148;16.932;2022-12-07T15:27:20;11.65;;;5.63;;
45893;SDS011;31603;51.148;16.932;2022-12-07T15:29:46;10.70;;;6.45;;
45893;SDS011;31603;51.148;16.932;2022-12-07T15:32:25;10.65;;;6.55;;
45893;SDS011;31603;51.148;16.932;2022-12-07T15:35:00;13.60;;;6.90;;
45893;SDS011;31603;51.148;16.932;2022-12-07T15:37:27;12.23;;;7.05;;
45893;SDS011;31603;51.148;16.932;2022-12-07T15:39:53;10.38;;;6.55;;
45893;SDS011;31603;51.148;16.932;2022-12-07T15:42:26;11.40;;;6.63;;
45893;SDS011;31603;51.148;16.932;2022-12-07T15:44:52;13.00;;;7.00;;
45893;SDS011;31603;51.148;16.932;2022-12-07T15:47:36;14.18;;;8.18;;
45893;SDS011;31603;51.148;16.932;2022-12-07T15:50:15;15.27;;;7.97;;
45893;SDS011;31603;51.148;16.932;2022-12-07T15:52:52;15.73;;;8.25;;
45893;SDS011;31603;51.148;16.932;2022-12-07T15:55:18;16.65;;;8.55;;
45893;SDS011;31603;51.148;16.932;2022-12-07T15:57:45;16.60;;;8.40;;
45893;SDS011;31603;51.148;16.932;2022-12-07T16:00:12;15.98;;;8.77;;
45893;SDS011;31603;51.148;16.932;2022-12-07T16:03:00;17.52;;;8.82;;
45893;SDS011;31603;51.148;16.932;2022-12-07T16:05:28;14.57;;;7.70;;
45893;SDS011;31603;51.148;16.932;2022-12-07T16:07:55;15.73;;;8.85;;
45893;SDS011;31603;51.148;16.932;2022-12-07T16:10:32;16.40;;;8.95;;
45893;SDS011;31603;51.148;16.932;2022-12-07T16:12:58;15.63;;;8.98;;
45893;SDS011;31603;51.148;16.932;2022-12-07T16:15:27;17.27;;;9.15;;
45893;SDS011;31603;51.148;16.932;2022-12-07T16:17:56;19.30;;;9.18;;
45893;SDS011;31603;51.148;16.932;2022-12-07T16:20:25;20.08;;;9.23;;
45893;SDS011;31603;51.148;16.932;2022-12-07T16:23:17;15.57;;;8.77;;
45893;SDS011;31603;51.148;16.932;2022-12-07T16:25:45;14.13;;;8.57;;
45893;SDS011;31603;51.148;16.932;2022-12-07T16:28:12;16.73;;;10.13;;
45893;SDS011;31603;51.148;16.932;2022-12-07T16:30:59;19.52;;;9.77;;
45893;SDS011;31603;51.148;16.932;2022-12-07T16:33:26;17.08;;;9.68;;
45893;SDS011;31603;51.148;16.932;2022-12-07T16:35:53;20.52;;;9.80;;
45893;SDS011;31603;51.148;16.932;2022-12-07T16:38:28;17.70;;;9.93;;
45893;SDS011;31603;51.148;16.932;2022-12-07T16:40:55;17.20;;;9.15;;